Time;durP1;ratioP1;P1;durP2;ratioP2;P2;SDS_P1;SDS_P2;PMS_P1;PMS_P2;Temp;Humidity;BMP_temperature;BMP_pressure;BME280_temperature;BME280_humidity;BME280_pressure;Samples;Min_cycle;Max_cycle;Signal;HPM_P1;HPM_P2
2022/09/22 00:00:56;;;;;;;17.60;16.70;;;;;;;6.85;100.00;102546.84;5034061;28;20784;-51
2022/09/22 00:03:24;;;;;;;19.80;18.80;;;;;;;6.85;100.00;102548.63;5042122;28;20549;-43
2022/09/22 00:05:59;;;;;;;18.23;17.33;;;;;;;6.84;100.00;102542.50;5032360;28;20981;-44
2022/09/22 00:08:27;;;;;;;18.90;17.90;;;;;;;6.84;100.00;102541.69;5032247;28;20432;-47
2022/09/22 00:11:03;;;;;;;19.63;18.70;;;;;;;6.84;100.00;102545.13;5038612;28;20917;-49
2022/09/22 00:13:33;;;;;;;18.20;17.30;;;;;;;6.84;100.00;102545.13;5044740;28;20466;-46
2022/09/22 00:16:02;;;;;;;18.50;17.67;;;;;;;6.82;100.00;102544.44;5052439;28;20871;-50
2022/09/22 00:18:29;;;;;;;19.57;18.37;;;;;;;6.80;100.00;102541.09;5052875;28;20431;-47
2022/09/22 00:20:58;;;;;;;18.90;17.93;;;;;;;6.76;100.00;102544.94;5041326;28;20786;-44
2022/09/22 00:23:27;;;;;;;19.83;18.77;;;;;;;6.72;100.00;102540.03;5051063;28;20488;-43
2022/09/22 00:25:55;;;;;;;18.67;17.53;;;;;;;6.67;100.00;102546.56;5052298;28;20871;-44
2022/09/22 00:28:25;;;;;;;19.20;18.30;;;;;;;6.64;100.00;102538.03;5053058;28;20847;-49
2022/09/22 00:30:54;;;;;;;19.00;18.10;;;;;;;6.62;100.00;102535.50;5052947;28;20439;-43
2022/09/22 00:33:21;;;;;;;20.23;18.93;;;;;;;6.59;100.00;102532.25;5052520;28;20479;-45
2022/09/22 00:35:57;;;;;;;18.57;17.57;;;;;;;6.56;100.00;102532.53;5052031;28;20459;-51
2022/09/22 00:38:25;;;;;;;19.83;18.40;;;;;;;6.54;100.00;102535.28;5052904;28;20485;-43
2022/09/22 00:40:53;;;;;;;19.00;18.00;;;;;;;6.53;100.00;102530.13;5052756;28;20438;-43
2022/09/22 00:43:24;;;;;;;20.97;19.37;;;;;;;6.49;100.00;102526.88;5052424;28;20435;-44
2022/09/22 00:45:56;;;;;;;20.03;19.13;;;;;;;6.46;100.00;102529.78;5051855;28;20509;-46
2022/09/22 00:48:26;;;;;;;19.60;18.70;;;;;;;6.42;100.00;102530.19;5052427;28;20489;-51
2022/09/22 00:50:57;;;;;;;19.80;18.70;;;;;;;6.40;100.00;102526.78;5052651;28;20492;-44
2022/09/22 00:53:26;;;;;;;19.90;18.60;;;;;;;6.36;100.00;102528.84;5052128;28;20528;-44
2022/09/22 00:55:58;;;;;;;19.80;18.90;;;;;;;6.34;100.00;102522.00;5051741;28;20462;-45
2022/09/22 00:58:29;;;;;;;22.37;21.17;;;;;;;6.35;100.00;102519.22;5052314;28;20419;-49
2022/09/22 01:00:59;;;;;;;21.43;20.23;;;;;;;6.32;100.00;102519.47;5052205;28;20489;-44
2022/09/22 01:03:28;;;;;;;20.90;19.90;;;;;;;6.31;100.00;102516.94;5052177;28;20427;-45
2022/09/22 01:06:00;;;;;;;21.70;20.57;;;;;;;6.30;100.00;102516.09;5036662;28;20522;-49
2022/09/22 01:08:30;;;;;;;21.60;20.40;;;;;;;6.30;100.00;102517.94;5034133;28;20510;-47
2022/09/22 01:10:59;;;;;;;22.73;21.50;;;;;;;6.29;100.00;102509.13;5040192;28;20490;-48
2022/09/22 01:13:34;;;;;;;20.67;19.67;;;;;;;6.27;100.00;102513.72;5050205;28;21047;-47
2022/09/22 01:16:34;;;;;;;21.27;20.17;;;;;;;6.26;100.00;102513.84;5051495;28;20466;-46
2022/09/22 01:19:32;;;;;;;21.53;20.43;;;;;;;6.24;100.00;102507.84;5047099;28;20437;-47
2022/09/22 01:22:14;;;;;;;21.50;20.23;;;;;;;6.24;100.00;102505.19;5034544;28;20462;-54
2022/09/22 01:25:10;;;;;;;24.00;22.37;;;;;;;6.22;100.00;102507.09;5031445;28;20513;-47
2022/09/22 01:28:04;;;;;;;23.60;22.40;;;;;;;6.20;100.00;102506.38;5031987;28;20563;-43
2022/09/22 01:30:38;;;;;;;23.87;22.57;;;;;;;6.17;100.00;102502.19;5032196;28;20493;-45
2022/09/22 01:33:20;;;;;;;25.00;23.50;;;;;;;6.16;100.00;102503.16;5031687;28;20533;-43
2022/09/22 01:36:08;;;;;;;26.70;24.83;;;;;;;6.14;100.00;102505.09;5031358;28;20460;-47
2022/09/22 01:38:44;;;;;;;25.17;23.87;;;;;;;6.11;100.00;102498.25;5031795;28;20922;-43
2022/09/22 01:41:21;;;;;;;27.40;25.60;;;;;;;6.09;100.00;102492.19;5032041;28;20431;-43
2022/09/22 01:43:53;;;;;;;25.37;24.10;;;;;;;6.07;100.00;102486.19;5031670;28;20771;-46
2022/09/22 01:46:28;;;;;;;23.30;22.10;;;;;;;6.05;100.00;102489.94;5031076;28;20985;-49
2022/09/22 01:49:00;;;;;;;24.17;22.87;;;;;;;6.03;100.00;102484.75;5031601;28;20431;-43
2022/09/22 01:51:34;;;;;;;22.80;21.70;;;;;;;6.03;100.00;102487.41;5031625;28;20432;-45
2022/09/22 01:54:06;;;;;;;25.20;23.80;;;;;;;6.01;100.00;102484.03;5031418;28;20836;-44
2022/09/22 01:56:36;;;;;;;23.07;21.97;;;;;;;6.02;100.00;102482.25;5031126;28;20519;-44
2022/09/22 01:59:07;;;;;;;23.60;22.27;;;;;;;6.02;100.00;102488.38;5031614;28;20432;-45
2022/09/22 02:01:41;;;;;;;24.00;22.80;;;;;;;6.02;100.00;102476.94;5031727;28;20424;-43
2022/09/22 02:04:14;;;;;;;24.40;23.10;;;;;;;6.01;100.00;102477.91;5033600;28;20453;-44
2022/09/22 02:06:46;;;;;;;22.67;21.47;;;;;;;6.02;100.00;102477.81;5034713;28;20463;-51
2022/09/22 02:09:17;;;;;;;24.10;23.00;;;;;;;6.00;100.00;102477.06;5043156;28;20431;-50
2022/09/22 02:11:44;;;;;;;23.73;22.53;;;;;;;5.99;100.00;102480.69;5051311;28;20435;-44
2022/09/22 02:14:13;;;;;;;23.37;22.27;;;;;;;5.97;100.00;102474.66;5051041;28;20980;-44
2022/09/22 02:16:42;;;;;;;23.80;22.57;;;;;;;5.94;100.00;102469.63;5050756;28;20521;-43
2022/09/22 02:19:15;;;;;;;23.33;22.27;;;;;;;5.91;100.00;102464.56;5045696;28;20432;-48
2022/09/22 02:21:45;;;;;;;23.43;22.33;;;;;;;5.88;100.00;102474.59;5032350;28;20454;-46
2022/09/22 02:24:26;;;;;;;24.67;23.47;;;;;;;5.83;100.00;102466.97;5031162;28;20440;-50
2022/09/22 02:26:55;;;;;;;23.63;22.30;;;;;;;5.80;100.00;102469.03;5031384;28;20447;-50
2022/09/22 02:29:24;;;;;;;24.13;22.83;;;;;;;5.78;100.00;102470.97;5031413;28;20428;-44
2022/09/22 02:31:54;;;;;;;24.07;22.67;;;;;;;5.76;100.00;102462.31;5031200;28;20987;-43
2022/09/22 02:34:22;;;;;;;23.40;22.20;;;;;;;5.75;100.00;102465.91;5032386;28;20476;-43
2022/09/22 02:36:58;;;;;;;24.83;23.60;;;;;;;5.71;100.00;102462.66;5034820;28;20510;-46
2022/09/22 02:39:33;;;;;;;23.67;22.57;;;;;;;5.67;100.00;102477.13;5035038;28;20427;-43
2022/09/22 02:42:15;;;;;;;23.70;22.60;;;;;;;5.63;100.00;102466.88;5035032;28;20428;-54
2022/09/22 02:44:48;;;;;;;23.90;22.80;;;;;;;5.61;100.00;102466.19;5034465;28;20464;-46
2022/09/22 02:47:22;;;;;;;22.10;21.00;;;;;;;5.60;100.00;102467.97;5034636;28;20981;-43
2022/09/22 02:49:51;;;;;;;23.57;22.47;;;;;;;5.58;100.00;102465.44;5034881;28;21031;-42
2022/09/22 02:52:20;;;;;;;23.80;22.60;;;;;;;5.56;100.00;102470.03;5034545;28;20988;-50
2022/09/22 02:54:48;;;;;;;24.13;23.03;;;;;;;5.58;100.00;102461.97;5034286;28;20468;-43
2022/09/22 02:57:15;;;;;;;24.27;22.97;;;;;;;5.55;100.00;102463.03;5034705;28;20455;-48
2022/09/22 02:59:43;;;;;;;23.27;22.03;;;;;;;5.56;100.00;102458.59;5034446;28;20942;-50
2022/09/22 03:02:11;;;;;;;24.77;23.47;;;;;;;5.54;100.00;102457.88;5034532;28;20428;-45
2022/09/22 03:04:40;;;;;;;24.50;23.20;;;;;;;5.53;100.00;102457.03;5034524;28;20454;-45
2022/09/22 03:07:07;;;;;;;24.57;23.20;;;;;;;5.53;100.00;102461.47;5041136;28;20539;-48
2022/09/22 03:09:35;;;;;;;25.27;23.60;;;;;;;5.52;100.00;102458.03;5046086;28;20428;-52
2022/09/22 03:12:03;;;;;;;26.83;24.97;;;;;;;5.53;100.00;102464.13;5054186;28;20501;-49
2022/09/22 03:14:30;;;;;;;26.23;24.17;;;;;;;5.52;100.00;102455.38;5053454;28;20540;-44
2022/09/22 03:16:58;;;;;;;28.40;25.37;;;;;;;5.51;100.00;102447.53;5054347;28;20532;-46
2022/09/22 03:19:25;;;;;;;26.17;24.47;;;;;;;5.51;100.00;102450.19;5048321;28;20775;-47
2022/09/22 03:21:54;;;;;;;26.40;23.87;;;;;;;5.51;100.00;102455.47;5045833;28;20497;-43
2022/09/22 03:24:22;;;;;;;29.20;26.07;;;;;;;5.52;100.00;102444.78;5053489;28;20934;-45
2022/09/22 03:26:50;;;;;;;27.20;25.20;;;;;;;5.53;100.00;102443.81;5053923;28;20512;-43
2022/09/22 03:29:17;;;;;;;31.00;26.03;;;;;;;5.54;100.00;102448.16;5053882;28;20439;-46
2022/09/22 03:31:45;;;;;;;27.03;25.00;;;;;;;5.58;100.00;102449.56;5054140;28;20443;-43
2022/09/22 03:34:12;;;;;;;57.03;27.70;;;;;;;5.62;100.00;102449.31;5053655;28;20471;-43
2022/09/22 03:36:40;;;;;;;57.50;26.97;;;;;;;5.66;100.00;102445.47;5052829;28;20534;-48
2022/09/22 03:39:09;;;;;;;54.60;26.77;;;;;;;5.72;100.00;102444.97;5053796;28;20470;-43
2022/09/22 03:41:37;;;;;;;134.37;32.27;;;;;;;5.76;100.00;102441.97;5053601;28;20451;-43
2022/09/22 03:44:04;;;;;;;117.83;30.10;;;;;;;5.81;100.00;102441.59;5053174;28;21063;-44
2022/09/22 03:46:33;;;;;;;29.20;24.40;;;;;;;5.85;100.00;102443.91;5052555;28;20463;-50
2022/09/22 03:49:02;;;;;;;26.67;24.30;;;;;;;5.91;100.00;102440.72;5053759;28;20431;-44
2022/09/22 03:51:29;;;;;;;56.70;25.27;;;;;;;5.96;100.00;102441.22;5053791;28;20439;-43
2022/09/22 03:53:57;;;;;;;50.30;27.67;;;;;;;6.01;100.00;102451.44;5053115;28;20431;-47
2022/09/22 03:56:26;;;;;;;30.50;25.47;;;;;;;6.04;100.00;102444.06;5052743;28;20463;-46
2022/09/22 03:58:53;;;;;;;27.10;24.97;;;;;;;6.08;100.00;102444.66;5053346;28;20451;-46
2022/09/22 04:01:21;;;;;;;42.63;25.37;;;;;;;6.09;100.00;102444.53;5052138;28;20439;-46
2022/09/22 04:03:49;;;;;;;39.67;25.90;;;;;;;6.11;100.00;102442.63;5052737;28;20843;-50
2022/09/22 04:06:16;;;;;;;135.93;32.87;;;;;;;6.10;100.00;102442.72;5052275;28;20513;-53
2022/09/22 04:08:44;;;;;;;80.70;31.93;;;;;;;6.11;100.00;102436.47;5053179;28;20497;-46
2022/09/22 04:11:12;;;;;;;94.73;33.00;;;;;;;6.13;100.00;102442.47;5053133;28;20994;-43
2022/09/22 04:13:41;;;;;;;60.47;28.40;;;;;;;6.17;100.00;102445.72;5053050;28;20431;-45
2022/09/22 04:16:13;;;;;;;27.60;25.50;;;;;;;6.21;100.00;102436.56;5052334;28;20478;-51
2022/09/22 04:18:41;;;;;;;43.87;27.73;;;;;;;6.26;100.00;102442.31;5051332;28;20431;-50
2022/09/22 04:21:09;;;;;;;94.87;35.87;;;;;;;6.29;100.00;102436.75;5041327;28;20490;-45
2022/09/22 04:23:36;;;;;;;40.93;29.80;;;;;;;6.33;100.00;102439.00;5052692;28;20435;-44
2022/09/22 04:26:05;;;;;;;52.77;29.60;;;;;;;6.39;100.00;102443.78;5052101;28;20463;-44
2022/09/22 04:28:33;;;;;;;29.03;26.30;;;;;;;6.45;100.00;102445.13;5052911;28;20431;-45
2022/09/22 04:31:02;;;;;;;150.10;38.80;;;;;;;6.47;100.00;102441.38;5052856;28;20485;-44
2022/09/22 04:33:29;;;;;;;33.10;26.37;;;;;;;6.53;100.00;102438.19;5052451;28;20427;-48
2022/09/22 04:35:57;;;;;;;43.43;28.53;;;;;;;6.57;100.00;102430.84;5052105;28;20468;-45
2022/09/22 04:38:25;;;;;;;63.13;30.33;;;;;;;6.61;100.00;102445.50;5052782;28;20477;-46
2022/09/22 04:40:53;;;;;;;34.37;27.50;;;;;;;6.66;100.00;102443.28;5052721;28;20485;-44
2022/09/22 04:43:20;;;;;;;85.00;33.70;;;;;;;6.69;100.00;102440.38;5052163;28;20553;-44
2022/09/22 04:45:48;;;;;;;99.30;32.80;;;;;;;6.70;100.00;102447.38;5051966;28;20463;-47
2022/09/22 04:48:17;;;;;;;43.13;29.90;;;;;;;6.74;100.00;102435.53;5052375;28;20952;-48
2022/09/22 04:50:44;;;;;;;37.97;27.77;;;;;;;6.78;100.00;102439.59;5052365;28;20941;-43
2022/09/22 04:53:15;;;;;;;114.50;31.27;;;;;;;6.82;100.00;102437.53;5052461;28;20469;-46
2022/09/22 04:55:42;;;;;;;104.07;31.77;;;;;;;6.87;100.00;102432.69;5051614;28;20463;-43
2022/09/22 04:58:10;;;;;;;106.03;33.60;;;;;;;6.89;100.00;102425.44;5051517;28;20844;-45
2022/09/22 05:00:38;;;;;;;149.70;38.80;;;;;;;6.92;100.00;102422.53;5052152;28;20439;-44
2022/09/22 05:03:08;;;;;;;123.27;37.73;;;;;;;6.96;100.00;102427.41;5052096;28;20529;-46
2022/09/22 05:05:37;;;;;;;31.17;26.20;;;;;;;6.99;100.00;102429.00;5051749;28;21026;-44
2022/09/22 05:08:06;;;;;;;48.67;29.17;;;;;;;7.02;100.00;102426.88;5051918;28;20456;-46
2022/09/22 05:10:34;;;;;;;118.93;31.03;;;;;;;7.05;100.00;102426.63;5052056;28;20860;-46
2022/09/22 05:13:02;;;;;;;119.30;33.10;;;;;;;7.07;100.00;102422.03;5051620;28;21168;-43
2022/09/22 05:15:31;;;;;;;154.67;39.47;;;;;;;7.09;100.00;102425.38;5051324;28;20479;-45
2022/09/22 05:17:59;;;;;;;172.13;38.57;;;;;;;7.10;100.00;102418.28;5051986;28;20455;-45
2022/09/22 05:20:26;;;;;;;43.17;29.57;;;;;;;7.15;100.00;102424.00;5043827;28;20497;-50
2022/09/22 05:22:55;;;;;;;119.57;33.33;;;;;;;7.16;100.00;102423.91;5045522;28;20481;-46
2022/09/22 05:25:23;;;;;;;163.87;35.87;;;;;;;7.19;100.00;102420.13;5051272;28;20525;-49
2022/09/22 05:27:52;;;;;;;181.57;44.23;;;;;;;7.21;100.00;102424.31;5051676;28;20505;-49
2022/09/22 05:30:21;;;;;;;190.57;38.73;;;;;;;7.26;100.00;102431.88;5051667;28;20439;-44
2022/09/22 05:32:50;;;;;;;115.70;32.37;;;;;;;7.30;100.00;102429.78;5052127;28;20423;-50
2022/09/22 05:35:19;;;;;;;121.47;36.17;;;;;;;7.32;100.00;102435.81;5051163;28;20506;-48
2022/09/22 05:37:49;;;;;;;245.90;49.60;;;;;;;7.35;100.00;102430.25;5051537;28;20451;-51
2022/09/22 05:40:19;;;;;;;81.20;31.43;;;;;;;7.37;100.00;102438.91;5051464;28;20461;-51
2022/09/22 05:42:48;;;;;;;88.70;31.50;;;;;;;7.41;100.00;102440.31;5051560;28;20531;-46
2022/09/22 05:45:17;;;;;;;118.53;33.80;;;;;;;7.42;100.00;102440.19;5051239;28;20512;-45
2022/09/22 05:47:45;;;;;;;188.73;37.00;;;;;;;7.46;100.00;102438.09;5051380;28;20470;-47
2022/09/22 05:50:15;;;;;;;58.30;29.70;;;;;;;7.53;100.00;102432.09;5051454;28;20439;-46
2022/09/22 05:52:43;;;;;;;145.63;38.57;;;;;;;7.58;100.00;102440.53;5051073;28;20431;-49
2022/09/22 05:55:11;;;;;;;54.37;27.47;;;;;;;7.65;100.00;102441.63;5051048;28;20532;-49
2022/09/22 05:57:40;;;;;;;156.13;35.70;;;;;;;7.74;100.00;102443.47;5051494;28;20459;-47
2022/09/22 06:00:09;;;;;;;91.87;31.33;;;;;;;7.85;100.00;102445.19;5051514;28;20439;-46
2022/09/22 06:02:37;;;;;;;148.37;37.60;;;;;;;7.96;100.00;102449.53;5050725;28;20860;-45
2022/09/22 06:05:05;;;;;;;102.27;35.00;;;;;;;8.08;100.00;102443.09;5050907;28;20467;-48
2022/09/22 06:07:33;;;;;;;66.47;29.10;;;;;;;8.26;100.00;102441.44;5052020;28;20510;-45
2022/09/22 06:10:00;;;;;;;59.43;31.03;;;;;;;8.46;100.00;102451.09;5055326;28;20435;-48
2022/09/22 06:12:28;;;;;;;45.97;29.20;;;;;;;8.71;100.00;102442.53;5055130;28;20847;-51
2022/09/22 06:14:57;;;;;;;85.87;34.27;;;;;;;8.97;100.00;102442.75;5054781;28;20446;-47
2022/09/22 06:17:24;;;;;;;80.40;33.67;;;;;;;9.35;100.00;102447.06;5055140;28;20497;-45
2022/09/22 06:19:52;;;;;;;30.90;28.10;;;;;;;9.78;100.00;102441.09;5048960;28;20461;-46
2022/09/22 06:22:20;;;;;;;31.10;28.23;;;;;;;10.16;100.00;102438.19;5046723;28;21346;-46
2022/09/22 06:24:47;;;;;;;33.93;29.50;;;;;;;10.40;100.00;102441.06;5054597;28;21022;-49
2022/09/22 06:27:15;;;;;;;37.87;28.40;;;;;;;10.73;100.00;102442.16;5054909;28;20524;-47
2022/09/22 06:29:43;;;;;;;42.13;30.07;;;;;;;10.91;100.00;102447.44;5055016;28;20443;-49
2022/09/22 06:32:12;;;;;;;30.17;27.77;;;;;;;11.15;100.00;102441.38;5054627;28;20496;-52
2022/09/22 06:34:40;;;;;;;33.10;29.23;;;;;;;11.35;100.00;102441.00;5054640;28;20459;-47
2022/09/22 06:37:08;;;;;;;30.43;28.00;;;;;;;11.60;100.00;102442.78;5054836;28;20478;-46
2022/09/22 06:39:36;;;;;;;30.33;28.00;;;;;;;11.92;100.00;102436.69;5054676;28;20944;-50
2022/09/22 06:42:04;;;;;;;30.83;28.30;;;;;;;12.29;100.00;102438.91;5054492;28;20505;-48
2022/09/22 06:44:32;;;;;;;30.23;27.97;;;;;;;12.70;100.00;102435.22;5054031;28;20500;-47
2022/09/22 06:47:04;;;;;;;29.47;27.07;;;;;;;13.10;100.00;102434.34;5054334;28;20459;-54
2022/09/22 06:49:33;;;;;;;31.53;28.67;;;;;;;13.43;100.00;102434.22;5054575;28;20427;-46
2022/09/22 06:52:00;;;;;;;28.93;27.40;;;;;;;13.73;100.00;102428.88;5054404;28;20435;-48
2022/09/22 06:54:28;;;;;;;30.70;28.80;;;;;;;13.86;100.00;102430.94;5053769;28;20505;-52
2022/09/22 06:56:55;;;;;;;30.07;28.30;;;;;;;14.09;100.00;102431.00;5054305;28;20520;-51
2022/09/22 06:59:23;;;;;;;27.63;26.13;;;;;;;14.13;99.95;102425.06;5054236;28;20431;-48
2022/09/22 07:01:51;;;;;;;26.80;25.40;;;;;;;14.21;98.71;102430.41;5054370;28;20484;-53
2022/09/22 07:04:21;;;;;;;27.10;25.53;;;;;;;14.27;97.83;102432.38;5053764;28;20434;-53
2022/09/22 07:06:50;;;;;;;28.17;26.57;;;;;;;14.22;93.30;102431.22;5054394;28;20509;-52
2022/09/22 07:09:17;;;;;;;27.60;25.90;;;;;;;14.07;91.64;102436.53;5054335;28;20431;-47
2022/09/22 07:11:46;;;;;;;30.10;28.03;;;;;;;14.00;92.50;102432.06;5054072;28;20435;-49
2022/09/22 07:14:13;;;;;;;30.23;28.23;;;;;;;13.82;91.63;102425.13;5054147;28;20435;-52
2022/09/22 07:16:41;;;;;;;30.57;28.63;;;;;;;13.73;91.74;102430.72;5053438;28;20475;-48
2022/09/22 07:19:09;;;;;;;28.40;26.70;;;;;;;13.68;93.22;102425.03;5047797;28;20486;-54
2022/09/22 07:21:39;;;;;;;31.37;29.00;;;;;;;13.65;92.95;102433.44;5045401;28;20431;-54
2022/09/22 07:24:08;;;;;;;30.97;28.67;;;;;;;13.68;94.13;102433.91;5053672;28;20489;-51
2022/09/22 07:26:37;;;;;;;32.00;29.87;;;;;;;13.82;95.26;102425.13;5053183;28;20537;-51
2022/09/22 07:29:07;;;;;;;29.80;27.80;;;;;;;13.93;93.75;102433.78;5053637;28;20933;-52
2022/09/22 07:31:35;;;;;;;27.90;26.10;;;;;;;14.02;92.08;102425.50;5053831;28;20435;-47
2022/09/22 07:34:03;;;;;;;28.50;26.50;;;;;;;13.97;90.81;102427.03;5053531;28;20431;-51
2022/09/22 07:36:33;;;;;;;29.40;27.50;;;;;;;14.21;94.24;102429.56;5052899;28;21017;-50
2022/09/22 07:39:04;;;;;;;28.97;27.10;;;;;;;14.29;90.38;102430.31;5053528;28;20435;-50
2022/09/22 07:41:40;;;;;;;29.80;25.67;;;;;;;14.48;93.22;102422.81;5053959;28;20440;-51
2022/09/22 07:46:54;;;;;;;47.97;25.43;;;;;;;14.71;91.13;102432.50;5053179;28;20451;-49
2022/09/22 07:49:22;;;;;;;25.73;23.40;;;;;;;14.68;88.00;102426.66;5053276;28;20941;-54
2022/09/22 07:51:53;;;;;;;88.73;26.47;;;;;;;14.17;85.83;102425.56;5053203;28;20435;-52
2022/09/22 07:54:21;;;;;;;24.43;21.30;;;;;;;13.71;89.65;102422.00;5052688;28;20431;-51
2022/09/22 07:56:55;;;;;;;52.60;22.57;;;;;;;13.53;93.91;102430.28;5053145;28;20475;-53
2022/09/22 07:59:22;;;;;;;52.77;25.03;;;;;;;13.41;94.55;102426.34;5053149;28;20431;-51
2022/09/22 08:01:51;;;;;;;34.93;21.97;;;;;;;13.36;97.01;102436.75;5052989;28;20481;-53
2022/09/22 08:04:21;;;;;;;31.20;21.40;;;;;;;13.55;97.68;102427.47;5052587;28;20526;-51
2022/09/22 08:06:54;;;;;;;24.37;21.63;;;;;;;13.64;97.00;102427.25;5053245;28;20447;-51
2022/09/22 08:09:22;;;;;;;21.47;20.13;;;;;;;13.71;97.02;102428.19;5053107;28;20431;-51
2022/09/22 08:11:51;;;;;;;37.53;22.27;;;;;;;13.53;93.49;102430.28;5052975;28;20486;-51
2022/09/22 08:14:21;;;;;;;23.40;21.33;;;;;;;13.50;96.29;102429.84;5052250;28;20805;-51
2022/09/22 08:16:50;;;;;;;24.43;22.40;;;;;;;13.32;98.01;102430.91;5053006;28;20479;-51
2022/09/22 08:19:18;;;;;;;33.03;22.40;;;;;;;13.23;99.40;102433.81;5046889;28;20428;-53
2022/09/22 08:21:47;;;;;;;23.30;21.80;;;;;;;13.19;100.00;102435.16;5044397;28;20497;-51
2022/09/22 08:24:20;;;;;;;22.83;21.57;;;;;;;13.17;100.00;102435.31;5052735;28;20434;-53
2022/09/22 08:26:50;;;;;;;24.07;22.47;;;;;;;13.17;100.00;102429.13;5052900;28;20447;-51
2022/09/22 08:29:19;;;;;;;24.70;23.30;;;;;;;13.45;100.00;102433.03;5052688;28;20979;-50
2022/09/22 08:31:46;;;;;;;25.47;24.07;;;;;;;13.69;100.00;102424.88;5052732;28;20466;-49
2022/09/22 08:34:16;;;;;;;25.40;23.97;;;;;;;13.88;100.00;102434.31;5052468;28;20431;-52
2022/09/22 08:36:45;;;;;;;25.87;24.57;;;;;;;13.95;100.00;102419.16;5052105;28;20989;-53
2022/09/22 08:39:14;;;;;;;26.17;24.70;;;;;;;14.17;100.00;102428.25;5052416;28;20438;-53
2022/09/22 08:41:55;;;;;;;24.90;23.60;;;;;;;14.23;100.00;102425.69;5052455;28;21004;-53
2022/09/22 08:44:27;;;;;;;24.83;23.43;;;;;;;14.27;100.00;102420.78;5051895;28;20435;-49
2022/09/22 08:47:00;;;;;;;24.90;23.40;;;;;;;14.10;100.00;102425.44;5052137;28;20513;-53
2022/09/22 08:52:27;;;;;;;24.90;23.50;;;;;;;14.08;100.00;102423.94;5052061;28;20427;-51
2022/09/22 08:54:58;;;;;;;24.47;23.17;;;;;;;14.21;100.00;102426.88;5051955;28;20517;-49
2022/09/22 08:57:48;;;;;;;25.10;23.80;;;;;;;14.37;100.00;102424.06;5052130;28;20471;-53
2022/09/22 09:00:20;;;;;;;22.33;21.30;;;;;;;14.29;100.00;102430.31;5052003;28;20783;-54
2022/09/22 09:03:00;;;;;;;23.60;22.40;;;;;;;14.42;100.00;102426.22;5052045;28;20458;-51
2022/09/22 09:05:50;;;;;;;23.33;22.13;;;;;;;14.61;100.00;102423.03;5051598;28;20546;-54
2022/09/22 09:08:47;;;;;;;23.00;21.70;;;;;;;14.86;100.00;102424.47;5052143;28;20952;-52
2022/09/22 09:11:30;;;;;;;23.07;21.77;;;;;;;15.08;100.00;102423.56;5052043;28;20427;-54
2022/09/22 09:14:12;;;;;;;22.70;21.33;;;;;;;15.40;98.73;102422.31;5051896;28;20500;-51
2022/09/22 09:16:49;;;;;;;21.30;20.30;;;;;;;15.70;95.61;102429.34;5051371;28;20466;-52
2022/09/22 09:19:20;;;;;;;22.17;21.27;;;;;;;15.98;90.74;102422.19;5045943;28;20899;-53
2022/09/22 09:21:53;;;;;;;22.40;21.23;;;;;;;16.28;90.34;102416.69;5043536;28;20427;-52
2022/09/22 09:24:30;;;;;;;21.97;20.87;;;;;;;16.48;84.05;102418.53;5051393;28;20427;-53
2022/09/22 09:27:21;;;;;;;21.90;20.80;;;;;;;16.75;81.23;102410.69;5051317;28;20508;-53
2022/09/22 09:30:06;;;;;;;20.53;19.67;;;;;;;17.04;81.61;102407.75;5051920;28;20509;-51
2022/09/22 09:32:47;;;;;;;20.50;19.67;;;;;;;17.27;80.15;102407.44;5051369;28;20428;-52
2022/09/22 09:35:17;;;;;;;19.53;18.60;;;;;;;17.44;77.34;102403.41;5051284;28;20463;-48
2022/09/22 09:37:47;;;;;;;18.77;17.97;;;;;;;17.61;76.58;102396.63;5051356;28;20502;-51
2022/09/22 09:40:18;;;;;;;18.00;17.10;;;;;;;17.79;75.78;102398.75;5051714;28;20443;-49
2022/09/22 09:42:47;;;;;;;17.17;16.43;;;;;;;17.83;72.78;102400.03;5050901;28;20430;-53
2022/09/22 09:45:16;;;;;;;13.97;13.47;;;;;;;17.94;71.95;102394.03;5051011;28;20463;-52
2022/09/22 09:48:08;;;;;;;14.90;14.10;;;;;;;18.19;73.94;102393.19;5051281;28;20821;-49
2022/09/22 09:50:36;;;;;;;14.43;13.80;;;;;;;18.25;68.67;102392.38;5051631;28;20546;-51
2022/09/22 09:53:04;;;;;;;14.23;13.53;;;;;;;18.41;70.02;102388.44;5051281;28;20485;-53
2022/09/22 09:55:35;;;;;;;14.60;13.50;;;;;;;18.51;67.76;102385.34;5050994;28;21001;-51
2022/09/22 09:58:06;;;;;;;12.60;12.00;;;;;;;18.54;67.00;102380.38;5051355;28;20479;-53
2022/09/22 10:00:33;;;;;;;12.93;12.00;;;;;;;18.71;65.21;102372.66;5051335;28;20434;-53
2022/09/22 10:03:13;;;;;;;11.27;10.63;;;;;;;18.96;67.15;102381.75;5051292;28;20435;-50
2022/09/22 10:05:42;;;;;;;9.60;9.00;;;;;;;19.15;62.92;102375.44;5050762;28;20463;-51
2022/09/22 10:08:18;;;;;;;9.80;9.20;;;;;;;19.49;61.18;102385.09;5051208;28;20447;-53
2022/09/22 10:10:47;;;;;;;9.33;8.80;;;;;;;19.84;62.13;102371.97;5051058;28;20435;-51
2022/09/22 10:13:22;;;;;;;8.30;7.87;;;;;;;20.13;62.29;102365.94;5050867;28;20512;-51
2022/09/22 10:16:01;;;;;;;8.37;8.00;;;;;;;20.30;58.71;102367.09;5050700;28;20463;-53
2022/09/22 10:18:35;;;;;;;8.23;7.73;;;;;;;20.29;59.45;102365.44;5051221;28;20481;-49
2022/09/22 10:21:05;;;;;;;8.70;8.23;;;;;;;20.08;58.29;102373.06;5034494;28;20491;-49
2022/09/22 10:23:34;;;;;;;7.27;6.77;;;;;;;19.99;61.88;102367.09;5050055;28;20481;-49
2022/09/22 10:26:21;;;;;;;6.87;6.43;;;;;;;19.78;57.67;102362.03;5050656;28;20470;-52
2022/09/22 10:29:16;;;;;;;9.17;6.60;;;;;;;19.78;57.77;102362.88;5051304;28;20419;-53
2022/09/22 10:32:02;;;;;;;6.33;5.93;;;;;;;20.01;56.72;102362.28;5051018;28;20427;-52
2022/09/22 10:34:33;;;;;;;6.43;6.03;;;;;;;20.25;54.10;102364.19;5050681;28;20430;-49
2022/09/22 10:37:03;;;;;;;5.97;5.30;;;;;;;20.27;53.78;102362.13;5051119;28;20450;-47
2022/09/22 10:39:43;;;;;;;5.97;5.47;;;;;;;20.57;51.45;102350.59;5051063;28;20520;-51
2022/09/22 10:42:22;;;;;;;6.10;5.50;;;;;;;20.16;53.96;102357.38;5050594;28;20917;-52
2022/09/22 10:44:52;;;;;;;4.87;4.60;;;;;;;20.09;55.48;102359.31;5050661;28;20465;-51
2022/09/22 10:47:26;;;;;;;6.00;5.53;;;;;;;20.31;52.61;102351.66;5051148;28;20463;-52
2022/09/22 10:50:27;;;;;;;5.70;5.17;;;;;;;20.55;51.08;102350.00;5051408;28;20434;-52
2022/09/22 10:53:04;;;;;;;5.20;4.90;;;;;;;20.49;50.99;102354.41;5050713;28;20435;-50
2022/09/22 10:55:35;;;;;;;5.77;5.50;;;;;;;20.80;52.91;102356.19;5052582;28;20512;-55
2022/09/22 10:58:25;;;;;;;5.40;5.00;;;;;;;21.01;52.60;102344.88;5055357;28;20478;-55
2022/09/22 11:01:02;;;;;;;5.37;4.70;;;;;;;21.16;50.88;102341.81;5054392;28;20437;-57
2022/09/22 11:04:01;;;;;;;5.60;5.20;;;;;;;20.83;46.96;102347.59;5054370;28;20434;-57
2022/09/22 11:13:12;;;;;;;6.57;5.97;;;;;;;20.20;46.63;102344.22;5052990;28;20441;-56
2022/09/22 11:15:55;;;;;;;5.60;5.20;;;;;;;20.20;46.45;102341.50;5053626;28;20520;-57
2022/09/22 11:18:51;;;;;;;5.20;4.83;;;;;;;19.88;47.02;102340.72;5054252;28;20481;-57
2022/09/22 11:21:34;;;;;;;5.20;4.90;;;;;;;19.51;49.71;102342.41;5040201;28;20840;-48
2022/09/22 11:24:25;;;;;;;5.03;4.60;;;;;;;19.89;49.72;102342.41;5053620;28;20492;-55
2022/09/22 11:26:55;;;;;;;6.87;4.70;;;;;;;19.68;50.28;102338.13;5053919;28;20500;-56
2022/09/22 11:29:50;;;;;;;5.73;4.77;;;;;;;19.85;50.46;102335.75;5054137;28;20423;-54
2022/09/22 11:32:53;;;;;;;5.37;4.90;;;;;;;20.23;50.14;102327.53;5054026;28;20491;-53
2022/09/22 11:35:30;;;;;;;5.67;4.97;;;;;;;20.13;49.72;102319.88;5053474;28;20462;-53
2022/09/22 11:38:15;;;;;;;5.47;5.03;;;;;;;19.87;48.80;102328.22;5053742;28;20524;-53
2022/09/22 11:41:02;;;;;;;8.50;5.20;;;;;;;19.59;49.13;102333.22;5053694;28;20443;-53
2022/09/22 11:43:47;;;;;;;5.33;4.93;;;;;;;20.17;49.85;102315.69;5053724;28;20427;-51